sensor_id;sensor_type;location;lat;lon;timestamp;pressure;altitude;pressure_sealevel;temperature;humidity
68141;BME280;54941;52.220;104.306;2023-05-10T00:01:42;95777.81;;;9.48;39.90
68141;BME280;54941;52.220;104.306;2023-05-10T00:04:08;95762.91;;;9.47;39.75
68141;BME280;54941;52.220;104.306;2023-05-10T00:06:34;95785.06;;;9.41;39.90
68141;BME280;54941;52.220;104.306;2023-05-10T00:09:01;95782.56;;;9.68;39.71
68141;BME280;54941;52.220;104.306;2023-05-10T00:11:27;95759.84;;;9.63;39.62
68141;BME280;54941;52.220;104.306;2023-05-10T00:13:55;95765.78;;;9.38;40.30
68141;BME280;54941;52.220;104.306;2023-05-10T00:16:21;95781.25;;;9.51;39.73
68141;BME280;54941;52.220;104.306;2023-05-10T00:18:48;95747.56;;;9.62;39.53
68141;BME280;54941;52.220;104.306;2023-05-10T00:21:14;95769.66;;;9.57;39.95
68141;BME280;54941;52.220;104.306;2023-05-10T00:23:40;95748.91;;;9.77;39.25
68141;BME280;54941;52.220;104.306;2023-05-10T00:26:07;95772.34;;;10.17;39.04
68141;BME280;54941;52.220;104.306;2023-05-10T00:28:33;95759.66;;;10.01;39.04
68141;BME280;54941;52.220;104.306;2023-05-10T00:31:01;95771.41;;;10.20;38.69
68141;BME280;54941;52.220;104.306;2023-05-10T00:33:27;95758.09;;;10.25;38.22
68141;BME280;54941;52.220;104.306;2023-05-10T00:35:53;95789.88;;;10.20;38.40
68141;BME280;54941;52.220;104.306;2023-05-10T00:38:20;95801.66;;;10.39;38.10
68141;BME280;54941;52.220;104.306;2023-05-10T00:40:46;95778.41;;;10.21;38.29
68141;BME280;54941;52.220;104.306;2023-05-10T00:43:13;95776.09;;;9.79;39.21
68141;BME280;54941;52.220;104.306;2023-05-10T00:45:40;95773.28;;;9.85;39.03
68141;BME280;54941;52.220;104.306;2023-05-10T00:48:08;95772.25;;;9.91;39.40
68141;BME280;54941;52.220;104.306;2023-05-10T00:50:34;95794.88;;;10.00;38.94
68141;BME280;54941;52.220;104.306;2023-05-10T00:53:01;95791.78;;;10.15;38.56
68141;BME280;54941;52.220;104.306;2023-05-10T00:55:28;95794.72;;;10.35;37.86
68141;BME280;54941;52.220;104.306;2023-05-10T00:57:56;95788.03;;;10.23;37.69
68141;BME280;54941;52.220;104.306;2023-05-10T01:00:22;95806.38;;;10.28;37.86
68141;BME280;54941;52.220;104.306;2023-05-10T01:02:48;95780.19;;;10.20;37.38
68141;BME280;54941;52.220;104.306;2023-05-10T01:05:16;95777.63;;;10.17;38.30
68141;BME280;54941;52.220;104.306;2023-05-10T01:07:42;95779.06;;;10.29;38.11
68141;BME280;54941;52.220;104.306;2023-05-10T01:10:09;95790.59;;;10.56;37.57
68141;BME280;54941;52.220;104.306;2023-05-10T01:12:37;95791.19;;;10.92;36.56
68141;BME280;54941;52.220;104.306;2023-05-10T01:15:05;95784.72;;;11.02;36.33
68141;BME280;54941;52.220;104.306;2023-05-10T01:17:33;95776.38;;;11.15;36.28
68141;BME280;54941;52.220;104.306;2023-05-10T01:20:01;95774.44;;;10.93;36.97
68141;BME280;54941;52.220;104.306;2023-05-10T01:25:52;95795.97;;;11.34;35.98
68141;BME280;54941;52.220;104.306;2023-05-10T01:28:51;95781.94;;;11.32;36.30
68141;BME280;54941;52.220;104.306;2023-05-10T01:31:33;95791.75;;;11.81;35.21
68141;BME280;54941;52.220;104.306;2023-05-10T01:34:08;95798.81;;;11.54;35.75
68141;BME280;54941;52.220;104.306;2023-05-10T01:36:42;95780.28;;;11.29;35.91
68141;BME280;54941;52.220;104.306;2023-05-10T01:39:17;95795.78;;;11.40;36.36
68141;BME280;54941;52.220;104.306;2023-05-10T01:41:51;95789.84;;;11.85;35.46
68141;BME280;54941;52.220;104.306;2023-05-10T01:44:24;95802.00;;;11.64;35.67
68141;BME280;54941;52.220;104.306;2023-05-10T01:47:01;95806.63;;;12.09;35.28
68141;BME280;54941;52.220;104.306;2023-05-10T01:49:36;95802.75;;;11.94;35.53
68141;BME280;54941;52.220;104.306;2023-05-10T01:52:06;95809.97;;;11.89;35.17
68141;BME280;54941;52.220;104.306;2023-05-10T01:54:35;95812.94;;;11.80;35.31
68141;BME280;54941;52.220;104.306;2023-05-10T01:57:06;95791.97;;;11.74;35.48
68141;BME280;54941;52.220;104.306;2023-05-10T01:59:35;95804.03;;;11.56;36.07
68141;BME280;54941;52.220;104.306;2023-05-10T02:02:03;95824.94;;;11.90;35.65
68141;BME280;54941;52.220;104.306;2023-05-10T02:04:33;95814.72;;;12.52;34.71
68141;BME280;54941;52.220;104.306;2023-05-10T02:07:01;95797.81;;;12.32;35.29
68141;BME280;54941;52.220;104.306;2023-05-10T02:09:28;95808.44;;;12.32;35.89
68141;BME280;54941;52.220;104.306;2023-05-10T02:11:58;95817.56;;;12.46;35.51
68141;BME280;54941;52.220;104.306;2023-05-10T02:14:26;95803.84;;;12.59;34.68
68141;BME280;54941;52.220;104.306;2023-05-10T02:16:54;95827.69;;;12.59;34.62
68141;BME280;54941;52.220;104.306;2023-05-10T02:19:22;95816.97;;;12.62;34.66
68141;BME280;54941;52.220;104.306;2023-05-10T02:22:11;95813.19;;;12.69;34.64
68141;BME280;54941;52.220;104.306;2023-05-10T02:24:39;95819.69;;;12.60;34.91
68141;BME280;54941;52.220;104.306;2023-05-10T02:27:06;95825.19;;;12.55;34.76
68141;BME280;54941;52.220;104.306;2023-05-10T02:29:34;95839.09;;;12.61;34.68
68141;BME280;54941;52.220;104.306;2023-05-10T02:32:02;95844.00;;;12.71;34.49
68141;BME280;54941;52.220;104.306;2023-05-10T02:34:30;95857.63;;;12.84;34.09
68141;BME280;54941;52.220;104.306;2023-05-10T02:36:57;95858.81;;;12.53;35.10
68141;BME280;54941;52.220;104.306;2023-05-10T02:39:26;95844.84;;;12.25;35.04
68141;BME280;54941;52.220;104.306;2023-05-10T02:41:54;95819.56;;;11.66;36.54
68141;BME280;54941;52.220;104.306;2023-05-10T02:44:22;95843.88;;;11.78;36.75
68141;BME280;54941;52.220;104.306;2023-05-10T02:46:49;95880.56;;;12.63;35.58
68141;BME280;54941;52.220;104.306;2023-05-10T02:49:16;95876.22;;;12.61;34.83
68141;BME280;54941;52.220;104.306;2023-05-10T02:51:46;95866.22;;;12.20;35.86
68141;BME280;54941;52.220;104.306;2023-05-10T02:54:18;95846.09;;;12.15;35.92
68141;BME280;54941;52.220;104.306;2023-05-10T02:56:50;95868.22;;;12.14;36.25
68141;BME280;54941;52.220;104.306;2023-05-10T02:59:17;95877.91;;;12.63;35.47
68141;BME280;54941;52.220;104.306;2023-05-10T03:01:43;95864.00;;;12.80;34.89
68141;BME280;54941;52.220;104.306;2023-05-10T03:04:09;95845.78;;;12.47;35.33
68141;BME280;54941;52.220;104.306;2023-05-10T03:06:36;95842.41;;;12.44;35.61
68141;BME280;54941;52.220;104.306;2023-05-10T03:09:02;95841.41;;;12.46;36.10
68141;BME280;54941;52.220;104.306;2023-05-10T03:11:41;95860.94;;;12.67;35.23
68141;BME280;54941;52.220;104.306;2023-05-10T03:14:21;95870.56;;;13.38;33.95
68141;BME280;54941;52.220;104.306;2023-05-10T03:16:57;95870.84;;;13.09;33.92
68141;BME280;54941;52.220;104.306;2023-05-10T03:19:29;95857.63;;;12.84;34.50
68141;BME280;54941;52.220;104.306;2023-05-10T03:21:59;95853.88;;;12.44;35.20
68141;BME280;54941;52.220;104.306;2023-05-10T03:24:27;95859.56;;;12.57;35.27
68141;BME280;54941;52.220;104.306;2023-05-10T03:26:56;95876.38;;;13.03;34.42
68141;BME280;54941;52.220;104.306;2023-05-10T03:29:27;95878.06;;;12.59;34.85
68141;BME280;54941;52.220;104.306;2023-05-10T03:31:54;95869.41;;;12.30;35.20
68141;BME280;54941;52.220;104.306;2023-05-10T03:34:23;95856.88;;;12.10;35.85
68141;BME280;54941;52.220;104.306;2023-05-10T03:36:50;95852.84;;;12.23;35.92
68141;BME280;54941;52.220;104.306;2023-05-10T03:39:16;95860.16;;;12.42;35.55
68141;BME280;54941;52.220;104.306;2023-05-10T03:41:42;95865.78;;;12.79;34.73
68141;BME280;54941;52.220;104.306;2023-05-10T03:44:09;95854.91;;;13.09;34.38
68141;BME280;54941;52.220;104.306;2023-05-10T03:46:37;95854.34;;;13.01;33.99
68141;BME280;54941;52.220;104.306;2023-05-10T03:49:03;95848.75;;;13.08;33.80
68141;BME280;54941;52.220;104.306;2023-05-10T03:51:29;95842.66;;;13.28;33.57
68141;BME280;54941;52.220;104.306;2023-05-10T03:53:55;95841.00;;;13.48;33.95
68141;BME280;54941;52.220;104.306;2023-05-10T03:56:22;95839.84;;;13.53;33.29
68141;BME280;54941;52.220;104.306;2023-05-10T03:58:48;95836.66;;;13.67;33.00
68141;BME280;54941;52.220;104.306;2023-05-10T04:01:14;95844.63;;;13.87;32.64
68141;BME280;54941;52.220;104.306;2023-05-10T04:03:42;95840.75;;;13.74;32.72
68141;BME280;54941;52.220;104.306;2023-05-10T04:06:08;95836.69;;;13.65;32.93
68141;BME280;54941;52.220;104.306;2023-05-10T04:08:35;95843.97;;;13.82;33.06
68141;BME280;54941;52.220;104.306;2023-05-10T04:11:07;95848.09;;;13.89;32.97
68141;BME280;54941;52.220;104.306;2023-05-10T04:13:34;95845.75;;;13.82;33.22
68141;BME280;54941;52.220;104.306;2023-05-10T04:16:00;95850.22;;;14.01;32.70
68141;BME280;54941;52.220;104.306;2023-05-10T04:18:27;95847.59;;;14.00;32.93
68141;BME280;54941;52.220;104.306;2023-05-10T04:20:55;95831.72;;;13.58;33.58
68141;BME280;54941;52.220;104.306;2023-05-10T04:23:21;95818.47;;;13.58;33.30
68141;BME280;54941;52.220;104.306;2023-05-10T04:25:47;95827.97;;;13.84;33.12
68141;BME280;54941;52.220;104.306;2023-05-10T04:28:13;95849.13;;;13.85;33.24
68141;BME280;54941;52.220;104.306;2023-05-10T04:30:40;95874.94;;;13.39;34.44
68141;BME280;54941;52.220;104.306;2023-05-10T04:33:06;95852.38;;;13.06;35.46
68141;BME280;54941;52.220;104.306;2023-05-10T04:35:32;95845.78;;;13.16;35.17
68141;BME280;54941;52.220;104.306;2023-05-10T04:38:00;95836.69;;;13.23;35.14
68141;BME280;54941;52.220;104.306;2023-05-10T04:40:26;95858.03;;;13.20;35.15
68141;BME280;54941;52.220;104.306;2023-05-10T04:42:53;95870.41;;;12.74;35.70
68141;BME280;54941;52.220;104.306;2023-05-10T04:45:19;95863.88;;;12.36;36.41
68141;BME280;54941;52.220;104.306;2023-05-10T04:47:45;95866.13;;;12.47;35.84
68141;BME280;54941;52.220;104.306;2023-05-10T04:50:11;95879.03;;;12.56;35.79
68141;BME280;54941;52.220;104.306;2023-05-10T04:52:38;95881.00;;;12.74;35.26
68141;BME280;54941;52.220;104.306;2023-05-10T04:55:06;95897.84;;;12.97;35.14
68141;BME280;54941;52.220;104.306;2023-05-10T04:57:33;95908.19;;;13.03;35.50
68141;BME280;54941;52.220;104.306;2023-05-10T05:00:00;95909.31;;;12.97;35.22
68141;BME280;54941;52.220;104.306;2023-05-10T05:02:26;95894.63;;;13.10;34.90
68141;BME280;54941;52.220;104.306;2023-05-10T05:04:52;95900.22;;;13.03;34.93
68141;BME280;54941;52.220;104.306;2023-05-10T05:07:19;95891.34;;;13.04;35.26
68141;BME280;54941;52.220;104.306;2023-05-10T05:09:45;95901.22;;;13.24;35.46
68141;BME280;54941;52.220;104.306;2023-05-10T05:12:13;95889.19;;;13.37;35.30
68141;BME280;54941;52.220;104.306;2023-05-10T05:14:39;95885.91;;;13.52;34.92
68141;BME280;54941;52.220;104.306;2023-05-10T05:17:05;95880.78;;;13.26;35.45
68141;BME280;54941;52.220;104.306;2023-05-10T05:19:32;95869.09;;;13.31;35.47
68141;BME280;54941;52.220;104.306;2023-05-10T05:21:58;95873.13;;;13.62;35.54
68141;BME280;54941;52.220;104.306;2023-05-10T05:24:24;95869.72;;;13.80;35.89
68141;BME280;54941;52.220;104.306;2023-05-10T05:26:51;95868.25;;;13.73;36.31
68141;BME280;54941;52.220;104.306;2023-05-10T05:29:19;95862.38;;;13.65;36.32
68141;BME280;54941;52.220;104.306;2023-05-10T05:31:45;95858.25;;;13.80;36.33
68141;BME280;54941;52.220;104.306;2023-05-10T05:34:11;95854.59;;;13.82;36.79
68141;BME280;54941;52.220;104.306;2023-05-10T05:36:37;95848.94;;;14.10;36.16
68141;BME280;54941;52.220;104.306;2023-05-10T05:39:04;95856.19;;;14.27;36.66
68141;BME280;54941;52.220;104.306;2023-05-10T05:41:30;95854.09;;;14.54;36.33
68141;BME280;54941;52.220;104.306;2023-05-10T05:43:56;95857.72;;;14.72;35.59
68141;BME280;54941;52.220;104.306;2023-05-10T05:46:24;95862.13;;;14.32;35.80
68141;BME280;54941;52.220;104.306;2023-05-10T05:48:50;95853.78;;;14.21;36.83
68141;BME280;54941;52.220;104.306;2023-05-10T05:51:16;95846.88;;;14.17;36.95
68141;BME280;54941;52.220;104.306;2023-05-10T05:53:43;95846.16;;;13.93;37.58
68141;BME280;54941;52.220;104.306;2023-05-10T05:56:09;95846.56;;;14.24;37.92
68141;BME280;54941;52.220;104.306;2023-05-10T05:58:35;95839.16;;;14.31;38.73
68141;BME280;54941;52.220;104.306;2023-05-10T06:01:02;95842.81;;;14.28;39.42
68141;BME280;54941;52.220;104.306;2023-05-10T06:03:29;95831.34;;;13.87;38.55
68141;BME280;54941;52.220;104.306;2023-05-10T06:05:56;95838.63;;;13.62;38.46
68141;BME280;54941;52.220;104.306;2023-05-10T06:08:22;95830.53;;;13.65;39.24
68141;BME280;54941;52.220;104.306;2023-05-10T06:10:48;95828.97;;;13.39;40.52
68141;BME280;54941;52.220;104.306;2023-05-10T06:13:14;95836.75;;;13.43;40.89
68141;BME280;54941;52.220;104.306;2023-05-10T06:15:41;95839.38;;;13.86;39.87
68141;BME280;54941;52.220;104.306;2023-05-10T06:18:07;95840.63;;;13.77;40.29
68141;BME280;54941;52.220;104.306;2023-05-10T06:20:35;95835.84;;;13.85;40.97
68141;BME280;54941;52.220;104.306;2023-05-10T06:23:01;95831.41;;;13.86;40.47
68141;BME280;54941;52.220;104.306;2023-05-10T06:25:28;95827.75;;;13.68;41.51
68141;BME280;54941;52.220;104.306;2023-05-10T06:27:54;95845.34;;;13.05;40.77
68141;BME280;54941;52.220;104.306;2023-05-10T06:30:20;95846.13;;;13.07;41.23
68141;BME280;54941;52.220;104.306;2023-05-10T06:32:47;95843.09;;;12.94;41.94
68141;BME280;54941;52.220;104.306;2023-05-10T06:35:13;95842.53;;;13.09;43.12
68141;BME280;54941;52.220;104.306;2023-05-10T06:37:41;95838.13;;;13.32;41.80
68141;BME280;54941;52.220;104.306;2023-05-10T06:40:08;95844.03;;;13.38;42.15
68141;BME280;54941;52.220;104.306;2023-05-10T06:42:34;95844.72;;;13.64;41.74
68141;BME280;54941;52.220;104.306;2023-05-10T06:45:01;95855.00;;;13.93;40.86
68141;BME280;54941;52.220;104.306;2023-05-10T06:47:27;95859.44;;;14.13;40.59
68141;BME280;54941;52.220;104.306;2023-05-10T06:49:53;95852.66;;;14.26;40.96
68141;BME280;54941;52.220;104.306;2023-05-10T06:52:20;95852.50;;;14.70;40.80
68141;BME280;54941;52.220;104.306;2023-05-10T06:54:47;95843.50;;;15.10;40.91
68141;BME280;54941;52.220;104.306;2023-05-10T06:57:14;95841.84;;;14.89;45.38
68141;BME280;54941;52.220;104.306;2023-05-10T06:59:40;95835.59;;;15.45;44.07
68141;BME280;54941;52.220;104.306;2023-05-10T07:02:06;95832.00;;;15.46;44.27
68141;BME280;54941;52.220;104.306;2023-05-10T07:04:32;95830.34;;;15.80;45.37
68141;BME280;54941;52.220;104.306;2023-05-10T07:06:59;95824.53;;;16.06;46.20
68141;BME280;54941;52.220;104.306;2023-05-10T07:09:25;95829.88;;;15.89;47.17
68141;BME280;54941;52.220;104.306;2023-05-10T07:11:53;95830.34;;;15.97;47.82
68141;BME280;54941;52.220;104.306;2023-05-10T07:14:19;95827.97;;;16.25;47.65
68141;BME280;54941;52.220;104.306;2023-05-10T07:16:45;95824.66;;;15.87;48.59
68141;BME280;54941;52.220;104.306;2023-05-10T07:19:12;95823.59;;;16.07;48.51
68141;BME280;54941;52.220;104.306;2023-05-10T07:21:38;95829.31;;;15.82;49.56
68141;BME280;54941;52.220;104.306;2023-05-10T07:24:05;95839.13;;;15.82;49.91
68141;BME280;54941;52.220;104.306;2023-05-10T07:26:31;95832.53;;;15.71;50.16
68141;BME280;54941;52.220;104.306;2023-05-10T07:28:59;95830.84;;;15.88;49.83
68141;BME280;54941;52.220;104.306;2023-05-10T07:31:25;95845.31;;;16.17;49.24
68141;BME280;54941;52.220;104.306;2023-05-10T07:33:51;95834.19;;;15.91;52.16
68141;BME280;54941;52.220;104.306;2023-05-10T07:36:17;95833.94;;;15.79;50.98
68141;BME280;54941;52.220;104.306;2023-05-10T07:38:44;95847.28;;;15.79;49.95
68141;BME280;54941;52.220;104.306;2023-05-10T07:41:11;95847.34;;;15.41;51.03
68141;BME280;54941;52.220;104.306;2023-05-10T07:43:38;95847.59;;;15.17;51.67
68141;BME280;54941;52.220;104.306;2023-05-10T07:46:06;95849.06;;;15.42;51.11
68141;BME280;54941;52.220;104.306;2023-05-10T07:48:32;95851.03;;;15.56;51.61
68141;BME280;54941;52.220;104.306;2023-05-10T07:50:58;95852.69;;;15.77;50.65
68141;BME280;54941;52.220;104.306;2023-05-10T07:53:26;95855.50;;;15.55;51.76
68141;BME280;54941;52.220;104.306;2023-05-10T07:55:56;95862.41;;;15.59;53.74
68141;BME280;54941;52.220;104.306;2023-05-10T07:58:24;95860.19;;;14.95;53.77
68141;BME280;54941;52.220;104.306;2023-05-10T08:00:50;95848.41;;;15.37;52.46
68141;BME280;54941;52.220;104.306;2023-05-10T08:03:18;95855.94;;;15.29;52.49
68141;BME280;54941;52.220;104.306;2023-05-10T08:05:44;95856.94;;;15.07;53.05
68141;BME280;54941;52.220;104.306;2023-05-10T08:08:10;95867.91;;;14.81;52.69
68141;BME280;54941;52.220;104.306;2023-05-10T08:10:37;95865.25;;;14.42;53.43
68141;BME280;54941;52.220;104.306;2023-05-10T08:13:03;95866.13;;;14.42;53.14
68141;BME280;54941;52.220;104.306;2023-05-10T08:15:29;95864.53;;;14.38;53.42
68141;BME280;54941;52.220;104.306;2023-05-10T08:17:56;95862.28;;;14.29;53.74
68141;BME280;54941;52.220;104.306;2023-05-10T08:20:24;95860.94;;;14.59;53.13
68141;BME280;54941;52.220;104.306;2023-05-10T08:22:50;95862.38;;;14.48;55.08
68141;BME280;54941;52.220;104.306;2023-05-10T08:25:16;95862.56;;;14.02;55.98
68141;BME280;54941;52.220;104.306;2023-05-10T08:27:42;95862.97;;;14.14;56.02
68141;BME280;54941;52.220;104.306;2023-05-10T08:30:09;95860.81;;;14.22;56.61
68141;BME280;54941;52.220;104.306;2023-05-10T08:32:36;95866.88;;;14.25;56.00
68141;BME280;54941;52.220;104.306;2023-05-10T08:35:02;95870.91;;;13.93;57.32
68141;BME280;54941;52.220;104.306;2023-05-10T08:37:33;95866.81;;;14.27;56.60
68141;BME280;54941;52.220;104.306;2023-05-10T08:39:59;95869.34;;;14.50;57.60
68141;BME280;54941;52.220;104.306;2023-05-10T08:42:28;95868.41;;;14.51;56.06
68141;BME280;54941;52.220;104.306;2023-05-10T08:44:57;95870.28;;;14.49;55.32
68141;BME280;54941;52.220;104.306;2023-05-10T08:47:25;95870.41;;;14.06;56.83
68141;BME280;54941;52.220;104.306;2023-05-10T08:49:52;95867.00;;;13.82;58.06
68141;BME280;54941;52.220;104.306;2023-05-10T08:52:20;95875.72;;;14.06;59.03
68141;BME280;54941;52.220;104.306;2023-05-10T08:54:49;95879.47;;;14.00;57.77
68141;BME280;54941;52.220;104.306;2023-05-10T08:57:15;95870.44;;;13.84;58.44
68141;BME280;54941;52.220;104.306;2023-05-10T08:59:42;95870.78;;;13.96;58.41
68141;BME280;54941;52.220;104.306;2023-05-10T09:02:10;95865.13;;;13.84;59.42
68141;BME280;54941;52.220;104.306;2023-05-10T09:04:37;95870.81;;;13.75;61.76
68141;BME280;54941;52.220;104.306;2023-05-10T09:07:04;95870.09;;;13.71;61.49
68141;BME280;54941;52.220;104.306;2023-05-10T09:09:31;95867.72;;;13.85;60.70
68141;BME280;54941;52.220;104.306;2023-05-10T09:11:59;95875.28;;;13.74;61.29
68141;BME280;54941;52.220;104.306;2023-05-10T09:14:26;95875.72;;;13.41;62.58
68141;BME280;54941;52.220;104.306;2023-05-10T09:16:53;95868.31;;;13.50;62.13
68141;BME280;54941;52.220;104.306;2023-05-10T09:19:20;95865.00;;;13.45;62.50
68141;BME280;54941;52.220;104.306;2023-05-10T09:21:46;95872.78;;;13.04;64.39
68141;BME280;54941;52.220;104.306;2023-05-10T09:24:12;95881.00;;;13.21;63.56
68141;BME280;54941;52.220;104.306;2023-05-10T09:26:46;95882.78;;;13.21;63.66
68141;BME280;54941;52.220;104.306;2023-05-10T09:29:14;95893.47;;;12.94;65.43
68141;BME280;54941;52.220;104.306;2023-05-10T09:31:45;95882.25;;;13.11;64.22
68141;BME280;54941;52.220;104.306;2023-05-10T09:34:11;95880.59;;;13.08;65.71
68141;BME280;54941;52.220;104.306;2023-05-10T09:36:50;95884.00;;;12.89;65.55
68141;BME280;54941;52.220;104.306;2023-05-10T09:39:16;95887.19;;;12.75;65.89
68141;BME280;54941;52.220;104.306;2023-05-10T09:41:43;95890.22;;;12.88;65.60
68141;BME280;54941;52.220;104.306;2023-05-10T09:44:09;95891.63;;;12.74;67.47
68141;BME280;54941;52.220;104.306;2023-05-10T09:46:37;95897.94;;;12.94;66.40
68141;BME280;54941;52.220;104.306;2023-05-10T09:49:05;95899.59;;;12.73;68.64
68141;BME280;54941;52.220;104.306;2023-05-10T09:51:31;95899.25;;;12.59;69.32
68141;BME280;54941;52.220;104.306;2023-05-10T09:54:09;95901.34;;;12.74;68.26
68141;BME280;54941;52.220;104.306;2023-05-10T09:56:37;95906.69;;;12.72;69.24
68141;BME280;54941;52.220;104.306;2023-05-10T09:59:03;95906.25;;;13.30;64.53
68141;BME280;54941;52.220;104.306;2023-05-10T10:01:29;95908.66;;;12.91;66.58
68141;BME280;54941;52.220;104.306;2023-05-10T10:03:58;95907.84;;;12.65;67.68
68141;BME280;54941;52.220;104.306;2023-05-10T10:06:24;95901.91;;;12.59;69.97
68141;BME280;54941;52.220;104.306;2023-05-10T10:08:51;95909.91;;;12.57;71.28
68141;BME280;54941;52.220;104.306;2023-05-10T10:11:17;95908.19;;;12.79;68.29
68141;BME280;54941;52.220;104.306;2023-05-10T10:13:44;95908.25;;;12.78;68.59
68141;BME280;54941;52.220;104.306;2023-05-10T10:16:10;95908.88;;;12.61;69.26
68141;BME280;54941;52.220;104.306;2023-05-10T10:18:37;95904.88;;;12.74;69.78
68141;BME280;54941;52.220;104.306;2023-05-10T10:21:05;95903.47;;;12.88;70.88
68141;BME280;54941;52.220;104.306;2023-05-10T10:23:31;95896.44;;;13.10;68.70
68141;BME280;54941;52.220;104.306;2023-05-10T10:25:58;95885.91;;;13.07;67.34
68141;BME280;54941;52.220;104.306;2023-05-10T10:28:32;95881.47;;;12.62;69.60
68141;BME280;54941;52.220;104.306;2023-05-10T10:31:14;95900.38;;;12.76;69.21
68141;BME280;54941;52.220;104.306;2023-05-10T10:33:55;95895.63;;;12.61;69.75
68141;BME280;54941;52.220;104.306;2023-05-10T10:36:25;95894.72;;;12.39;71.09
68141;BME280;54941;52.220;104.306;2023-05-10T10:38:56;95903.59;;;12.36;69.66
68141;BME280;54941;52.220;104.306;2023-05-10T10:41:29;95897.06;;;12.46;70.61
68141;BME280;54941;52.220;104.306;2023-05-10T10:44:26;95900.88;;;12.39;69.72
68141;BME280;54941;52.220;104.306;2023-05-10T10:47:00;95901.13;;;12.32;69.67
68141;BME280;54941;52.220;104.306;2023-05-10T10:49:26;95900.94;;;12.36;69.49
68141;BME280;54941;52.220;104.306;2023-05-10T10:52:23;95909.19;;;12.29;69.89
68141;BME280;54941;52.220;104.306;2023-05-10T10:54:50;95902.41;;;12.45;69.91
68141;BME280;54941;52.220;104.306;2023-05-10T10:57:19;95902.69;;;12.37;70.58
68141;BME280;54941;52.220;104.306;2023-05-10T10:59:45;95909.28;;;12.25;70.62
68141;BME280;54941;52.220;104.306;2023-05-10T11:02:33;95908.47;;;12.23;70.83
68141;BME280;54941;52.220;104.306;2023-05-10T11:04:59;95909.88;;;12.34;70.67
68141;BME280;54941;52.220;104.306;2023-05-10T11:07:27;95899.75;;;12.45;70.16
68141;BME280;54941;52.220;104.306;2023-05-10T11:09:54;95893.72;;;12.41;70.70
68141;BME280;54941;52.220;104.306;2023-05-10T11:12:50;95891.63;;;12.49;71.05
68141;BME280;54941;52.220;104.306;2023-05-10T11:15:17;95890.91;;;12.21;72.63
68141;BME280;54941;52.220;104.306;2023-05-10T11:17:43;95894.22;;;12.27;72.79
68141;BME280;54941;52.220;104.306;2023-05-10T11:20:11;95892.97;;;12.13;72.68
68141;BME280;54941;52.220;104.306;2023-05-10T11:22:52;95896.28;;;12.19;72.38
68141;BME280;54941;52.220;104.306;2023-05-10T11:25:19;95899.53;;;12.27;72.31
68141;BME280;54941;52.220;104.306;2023-05-10T11:27:48;95899.47;;;12.29;72.77
68141;BME280;54941;52.220;104.306;2023-05-10T11:30:14;95901.09;;;12.08;72.80
68141;BME280;54941;52.220;104.306;2023-05-10T11:32:41;95897.75;;;12.02;72.63
68141;BME280;54941;52.220;104.306;2023-05-10T11:35:08;95894.75;;;12.12;72.25
68141;BME280;54941;52.220;104.306;2023-05-10T11:37:35;95891.41;;;12.07;73.02
68141;BME280;54941;52.220;104.306;2023-05-10T11:40:03;95884.66;;;11.98;73.04
68141;BME280;54941;52.220;104.306;2023-05-10T11:42:30;95877.94;;;11.88;72.93
68141;BME280;54941;52.220;104.306;2023-05-10T11:44:56;95879.03;;;11.83;73.67
68141;BME280;54941;52.220;104.306;2023-05-10T11:47:23;95876.22;;;11.87;73.49
68141;BME280;54941;52.220;104.306;2023-05-10T11:49:49;95881.03;;;11.75;73.78
68141;BME280;54941;52.220;104.306;2023-05-10T11:52:15;95876.53;;;11.77;73.67
68141;BME280;54941;52.220;104.306;2023-05-10T11:54:51;95875.63;;;11.78;73.08
68141;BME280;54941;52.220;104.306;2023-05-10T11:57:20;95881.25;;;11.95;72.20
68141;BME280;54941;52.220;104.306;2023-05-10T11:59:46;95883.78;;;11.98;72.39
68141;BME280;54941;52.220;104.306;2023-05-10T12:02:13;95886.22;;;12.04;72.27
68141;BME280;54941;52.220;104.306;2023-05-10T12:04:40;95878.91;;;12.11;72.32
68141;BME280;54941;52.220;104.306;2023-05-10T12:07:07;95873.31;;;11.95;72.85
68141;BME280;54941;52.220;104.306;2023-05-10T12:09:34;95871.34;;;12.00;71.94
68141;BME280;54941;52.220;104.306;2023-05-10T12:12:02;95868.75;;;11.98;72.18
68141;BME280;54941;52.220;104.306;2023-05-10T12:14:34;95872.94;;;11.79;72.76
68141;BME280;54941;52.220;104.306;2023-05-10T12:17:00;95874.97;;;11.71;73.58
68141;BME280;54941;52.220;104.306;2023-05-10T12:19:27;95882.97;;;11.69;73.59
68141;BME280;54941;52.220;104.306;2023-05-10T12:21:53;95884.03;;;11.64;73.86
68141;BME280;54941;52.220;104.306;2023-05-10T12:24:20;95885.97;;;11.59;73.69
68141;BME280;54941;52.220;104.306;2023-05-10T12:26:46;95890.41;;;11.58;74.31
68141;BME280;54941;52.220;104.306;2023-05-10T12:29:13;95892.47;;;11.75;72.73
68141;BME280;54941;52.220;104.306;2023-05-10T12:31:59;95895.19;;;11.74;72.38
68141;BME280;54941;52.220;104.306;2023-05-10T12:34:27;95894.06;;;11.81;72.15
68141;BME280;54941;52.220;104.306;2023-05-10T12:36:56;95897.06;;;11.96;71.86
68141;BME280;54941;52.220;104.306;2023-05-10T12:39:22;95893.91;;;11.59;73.69
68141;BME280;54941;52.220;104.306;2023-05-10T12:41:49;95900.56;;;11.44;74.20
68141;BME280;54941;52.220;104.306;2023-05-10T12:44:15;95905.31;;;11.33;74.52
68141;BME280;54941;52.220;104.306;2023-05-10T12:46:41;95913.59;;;11.22;75.18
68141;BME280;54941;52.220;104.306;2023-05-10T12:49:09;95920.91;;;11.14;75.29